createdAt,value
2023-02-26T00:01:40.976Z,1.32
2023-02-26T00:04:09.428Z,1.30
2023-02-26T00:06:38.895Z,1.31
2023-02-26T00:09:07.468Z,1.30
2023-02-26T00:11:35.247Z,1.31
2023-02-26T00:14:02.916Z,1.31
2023-02-26T00:16:36.795Z,1.26
2023-02-26T00:19:07.690Z,1.26
2023-02-26T00:21:36.056Z,1.24
2023-02-26T00:24:03.726Z,1.21
2023-02-26T00:26:32.229Z,1.16
2023-02-26T00:29:00.599Z,1.13
2023-02-26T00:31:29.182Z,1.09
2023-02-26T00:33:57.695Z,1.05
2023-02-26T00:36:34.817Z,1.01
2023-02-26T00:39:38.024Z,0.99
2023-02-26T00:42:05.882Z,0.98
2023-02-26T00:44:33.656Z,0.95
2023-02-26T00:47:19.933Z,0.93
2023-02-26T00:49:53.481Z,0.90
2023-02-26T00:52:38.015Z,0.88
2023-02-26T00:55:06.326Z,0.88
2023-02-26T00:57:33.914Z,0.86
2023-02-26T01:00:01.161Z,0.86
2023-02-26T01:02:28.988Z,0.85
2023-02-26T01:04:56.805Z,0.82
2023-02-26T01:07:25.103Z,0.82
2023-02-26T01:09:52.672Z,0.82
2023-02-26T01:12:20.404Z,0.81
2023-02-26T01:14:48.205Z,0.81
2023-02-26T01:17:23.883Z,0.82
2023-02-26T01:20:04.075Z,0.78
2023-02-26T01:22:40.432Z,0.76
2023-02-26T01:25:44.145Z,0.74
2023-02-26T01:28:11.791Z,0.73
2023-02-26T01:30:42.697Z,0.71
2023-02-26T01:33:25.980Z,0.70
2023-02-26T01:35:58.805Z,0.70
2023-02-26T01:38:44.990Z,0.69
2023-02-26T01:41:34.063Z,0.68
2023-02-26T01:44:11.852Z,0.66
2023-02-26T01:46:54.293Z,0.66
2023-02-26T01:49:23.561Z,0.68
2023-02-26T01:51:57.984Z,0.66
2023-02-26T01:54:37.137Z,0.66
2023-02-26T01:57:11.531Z,0.67
2023-02-26T01:59:42.676Z,0.66
2023-02-26T02:02:11.947Z,0.67
2023-02-26T02:04:40.898Z,0.67
2023-02-26T02:07:09.112Z,0.68
2023-02-26T02:09:36.585Z,0.66
2023-02-26T02:12:23.924Z,0.67
2023-02-26T02:15:12.410Z,0.67
2023-02-26T02:18:08.925Z,0.68
2023-02-26T02:21:13.616Z,0.67
2023-02-26T02:24:00.634Z,0.66
2023-02-26T02:27:25.599Z,0.63
2023-02-26T02:30:33.982Z,0.64
2023-02-26T02:33:06.487Z,0.66
2023-02-26T02:35:41.400Z,0.67
2023-02-26T02:38:19.115Z,0.68
2023-02-26T02:40:54.866Z,0.67
2023-02-26T02:43:30.252Z,0.65
2023-02-26T02:46:12.000Z,0.62
2023-02-26T02:48:44.976Z,0.61
2023-02-26T02:51:22.594Z,0.61
2023-02-26T02:54:11.077Z,0.61
2023-02-26T02:56:45.647Z,0.59
2023-02-26T02:59:19.394Z,0.58
2023-02-26T03:01:51.597Z,0.58
2023-02-26T03:04:19.229Z,0.57
2023-02-26T03:06:46.884Z,0.55
2023-02-26T03:09:14.281Z,0.56
2023-02-26T03:11:42.381Z,0.56
2023-02-26T03:14:11.093Z,0.54
2023-02-26T03:17:03.129Z,0.55
2023-02-26T03:19:48.659Z,0.53
2023-02-26T03:22:31.760Z,0.53
2023-02-26T03:25:20.916Z,0.53
2023-02-26T03:28:07.135Z,0.53
2023-02-26T03:30:57.378Z,0.52
2023-02-26T03:33:46.486Z,0.50
2023-02-26T03:36:19.804Z,0.50
2023-02-26T03:39:02.213Z,0.53
2023-02-26T03:41:57.218Z,0.54
2023-02-26T03:44:32.759Z,0.54
2023-02-26T03:47:08.562Z,0.54
2023-02-26T03:49:45.300Z,0.56
2023-02-26T03:52:14.647Z,0.56
2023-02-26T03:55:18.557Z,0.57
2023-02-26T03:57:58.391Z,0.58
2023-02-26T04:00:34.760Z,0.56
2023-02-26T04:03:11.498Z,0.53
2023-02-26T04:05:43.697Z,0.51
2023-02-26T04:08:11.630Z,0.48
2023-02-26T04:10:47.493Z,0.47
2023-02-26T04:13:14.776Z,0.46
2023-02-26T04:15:42.251Z,0.44
2023-02-26T04:18:09.631Z,0.41
2023-02-26T04:20:37.059Z,0.38
2023-02-26T04:23:04.509Z,0.35
2023-02-26T04:25:31.871Z,0.32
2023-02-26T04:28:00.692Z,0.29
2023-02-26T04:30:28.575Z,0.27
2023-02-26T04:32:56.235Z,0.27
2023-02-26T04:35:23.742Z,0.27
2023-02-26T04:37:51.138Z,0.27
2023-02-26T04:40:18.546Z,0.28
2023-02-26T04:42:47.487Z,0.27
2023-02-26T04:45:21.516Z,0.27
2023-02-26T04:47:48.872Z,0.27
2023-02-26T04:50:16.994Z,0.28
2023-02-26T04:52:46.489Z,0.29
2023-02-26T04:55:15.211Z,0.30
2023-02-26T04:57:42.587Z,0.28
2023-02-26T05:00:11.557Z,0.30
2023-02-26T05:02:40.484Z,0.31
2023-02-26T05:05:08.162Z,0.31
2023-02-26T05:07:35.977Z,0.31
2023-02-26T05:10:05.524Z,0.31
2023-02-26T05:12:33.638Z,0.30
2023-02-26T05:15:01.335Z,0.29
2023-02-26T05:17:30.067Z,0.28
2023-02-26T05:19:57.681Z,0.25
2023-02-26T05:22:24.934Z,0.25
2023-02-26T05:24:52.545Z,0.25
2023-02-26T05:27:19.853Z,0.24
2023-02-26T05:29:48.412Z,0.21
2023-02-26T05:32:15.877Z,0.19
2023-02-26T05:34:44.059Z,0.16
2023-02-26T05:37:11.375Z,0.15
2023-02-26T05:39:41.501Z,0.16
2023-02-26T05:42:09.444Z,0.17
2023-02-26T05:44:36.832Z,0.17
2023-02-26T05:47:04.510Z,0.16
2023-02-26T05:49:31.834Z,0.17
2023-02-26T05:51:59.534Z,0.19
2023-02-26T05:54:26.814Z,0.20
2023-02-26T05:56:54.297Z,0.17
2023-02-26T05:59:21.975Z,0.17
2023-02-26T06:01:49.920Z,0.15
2023-02-26T06:04:17.489Z,0.14
2023-02-26T06:06:44.844Z,0.13
2023-02-26T06:09:12.313Z,0.14
2023-02-26T06:11:40.583Z,0.14
2023-02-26T06:14:07.950Z,0.15
2023-02-26T06:16:36.161Z,0.19
2023-02-26T06:19:03.497Z,0.24
2023-02-26T06:21:30.886Z,0.28
2023-02-26T06:23:58.452Z,0.31
2023-02-26T06:26:30.497Z,0.34
2023-02-26T06:28:57.809Z,0.36
2023-02-26T06:31:26.850Z,0.38
2023-02-26T06:33:54.666Z,0.39
2023-02-26T06:36:22.239Z,0.39
2023-02-26T06:38:49.659Z,0.41
2023-02-26T06:41:16.863Z,0.39
2023-02-26T06:43:44.094Z,0.43
2023-02-26T06:46:11.973Z,0.44
2023-02-26T06:48:42.215Z,0.46
2023-02-26T06:51:09.848Z,0.46
2023-02-26T06:53:37.239Z,0.46
2023-02-26T06:56:05.517Z,0.48
2023-02-26T06:58:33.039Z,0.49
2023-02-26T07:01:00.792Z,0.50
2023-02-26T07:03:28.494Z,0.49
2023-02-26T07:05:56.317Z,0.49
2023-02-26T07:08:24.143Z,0.50
2023-02-26T07:10:51.769Z,0.49
2023-02-26T07:13:19.130Z,0.50
2023-02-26T07:15:46.701Z,0.54
2023-02-26T07:18:14.059Z,0.59
2023-02-26T07:20:42.604Z,0.68
2023-02-26T07:23:10.000Z,0.78
2023-02-26T07:25:37.592Z,0.88
2023-02-26T07:28:05.451Z,0.97
2023-02-26T07:30:32.791Z,1.04
2023-02-26T07:33:00.522Z,1.10
2023-02-26T07:35:28.235Z,1.14
2023-02-26T07:37:55.542Z,1.17
2023-02-26T07:40:22.841Z,1.21
2023-02-26T07:42:53.659Z,1.25
2023-02-26T07:45:22.613Z,1.29
2023-02-26T07:47:51.594Z,1.34
2023-02-26T07:50:20.296Z,1.40
2023-02-26T07:52:48.122Z,1.48
2023-02-26T07:55:15.973Z,1.56
2023-02-26T07:57:43.299Z,1.65
2023-02-26T08:00:13.843Z,1.74
2023-02-26T08:02:41.465Z,1.83
2023-02-26T08:05:09.062Z,1.91
2023-02-26T08:07:37.600Z,2.01
2023-02-26T08:10:05.531Z,2.06
2023-02-26T08:12:34.290Z,2.11
2023-02-26T08:15:01.703Z,2.18
2023-02-26T08:17:30.089Z,2.24
2023-02-26T08:20:00.503Z,2.31
2023-02-26T08:22:27.851Z,2.39
2023-02-26T08:24:55.836Z,2.47
2023-02-26T08:27:23.141Z,2.54
2023-02-26T08:29:51.334Z,2.62
2023-02-26T08:32:20.570Z,2.75
2023-02-26T08:34:51.755Z,2.90
2023-02-26T08:37:22.189Z,3.06
2023-02-26T08:39:49.889Z,3.26
2023-02-26T08:42:17.472Z,3.51
2023-02-26T08:44:45.509Z,3.80
2023-02-26T08:47:15.111Z,4.10
2023-02-26T08:49:44.393Z,4.43
2023-02-26T08:52:11.866Z,4.70
2023-02-26T08:54:39.395Z,4.96
2023-02-26T08:57:06.819Z,5.12
2023-02-26T08:59:34.633Z,5.29
2023-02-26T09:02:02.477Z,5.43
2023-02-26T09:04:31.169Z,5.53
2023-02-26T09:06:58.747Z,5.55
2023-02-26T09:09:26.057Z,5.54
2023-02-26T09:11:53.360Z,5.57
2023-02-26T09:14:20.981Z,5.59
2023-02-26T09:16:51.007Z,5.53
2023-02-26T09:19:18.492Z,5.51
2023-02-26T09:21:45.791Z,5.58
2023-02-26T09:24:13.257Z,5.71
2023-02-26T09:26:40.482Z,5.74
2023-02-26T09:29:07.763Z,5.72
2023-02-26T09:31:35.233Z,5.65
2023-02-26T09:34:02.929Z,5.59
2023-02-26T09:36:31.421Z,5.41
2023-02-26T09:38:58.750Z,5.26
2023-02-26T09:41:41.456Z,5.05
2023-02-26T09:44:24.498Z,4.87
2023-02-26T09:47:28.879Z,4.71
2023-02-26T09:50:24.928Z,4.55
2023-02-26T09:53:29.814Z,4.40
2023-02-26T09:56:20.078Z,4.42
2023-02-26T09:58:47.894Z,4.47
2023-02-26T10:01:33.950Z,4.42
2023-02-26T10:04:20.932Z,4.42
2023-02-26T10:07:03.205Z,4.52
2023-02-26T10:10:09.491Z,4.47
2023-02-26T10:12:40.559Z,4.52
2023-02-26T10:15:15.243Z,4.53
2023-02-26T10:17:54.760Z,4.56
2023-02-26T10:20:30.947Z,4.54
2023-02-26T10:23:23.802Z,4.53
2023-02-26T10:26:04.713Z,4.58
2023-02-26T10:28:31.937Z,4.64
2023-02-26T10:31:21.494Z,4.67
2023-02-26T10:33:55.025Z,4.61
2023-02-26T10:36:29.288Z,4.60
2023-02-26T10:39:35.408Z,4.73
2023-02-26T10:42:12.355Z,4.86
2023-02-26T10:45:14.914Z,4.86
2023-02-26T10:47:56.670Z,4.92
2023-02-26T10:50:24.503Z,5.04
2023-02-26T10:52:52.802Z,5.13
2023-02-26T10:55:45.034Z,5.05
2023-02-26T10:58:17.187Z,4.98
2023-02-26T11:00:50.671Z,4.86
2023-02-26T11:03:31.006Z,4.75
2023-02-26T11:05:58.882Z,4.67
2023-02-26T11:08:28.827Z,4.64
2023-02-26T11:10:59.346Z,4.61
2023-02-26T11:13:30.642Z,4.64
2023-02-26T11:16:03.038Z,4.68
2023-02-26T11:18:42.739Z,4.79
2023-02-26T11:21:19.034Z,4.87
2023-02-26T11:23:48.407Z,4.94
2023-02-26T11:26:20.151Z,4.97
2023-02-26T11:28:51.061Z,5.01
2023-02-26T11:31:21.433Z,5.07
2023-02-26T11:33:53.649Z,5.07
2023-02-26T11:36:23.017Z,5.06
2023-02-26T11:39:16.418Z,5.07
2023-02-26T11:41:47.091Z,5.09
2023-02-26T11:44:18.449Z,5.14
2023-02-26T11:46:51.327Z,5.19
2023-02-26T11:49:22.855Z,5.19
2023-02-26T11:52:11.314Z,5.21
2023-02-26T11:54:39.799Z,5.21
2023-02-26T11:57:16.540Z,5.19
2023-02-26T11:59:51.725Z,5.18
2023-02-26T12:02:24.220Z,5.18
2023-02-26T12:04:53.956Z,5.26
2023-02-26T12:07:22.643Z,5.26
2023-02-26T12:09:50.794Z,5.27
2023-02-26T12:12:46.568Z,5.17
2023-02-26T12:15:29.390Z,5.06
2023-02-26T12:18:24.962Z,5.05
2023-02-26T12:21:15.778Z,5.06
2023-02-26T12:24:01.256Z,5.10
2023-02-26T12:26:46.103Z,5.13
2023-02-26T12:29:22.008Z,5.12
2023-02-26T12:32:11.799Z,5.14
2023-02-26T12:34:57.905Z,5.15
2023-02-26T12:37:50.007Z,5.14
2023-02-26T12:40:51.638Z,5.18
2023-02-26T12:43:49.729Z,5.21
2023-02-26T12:46:32.288Z,5.24
2023-02-26T12:49:28.528Z,5.26
2023-02-26T12:52:16.525Z,5.25
2023-02-26T12:55:14.416Z,5.25
2023-02-26T12:57:47.797Z,5.26
2023-02-26T13:00:21.303Z,5.27
2023-02-26T13:03:10.421Z,5.28
2023-02-26T13:05:50.002Z,5.25
2023-02-26T13:08:46.960Z,5.14
2023-02-26T13:11:37.415Z,5.19
2023-02-26T13:14:13.021Z,5.23
2023-02-26T13:16:55.097Z,5.14
2023-02-26T13:19:43.318Z,5.12
2023-02-26T13:22:35.218Z,5.14
2023-02-26T13:25:06.389Z,5.18
2023-02-26T13:27:39.786Z,5.12
2023-02-26T13:30:19.495Z,5.07
2023-02-26T13:32:50.004Z,5.04
2023-02-26T13:35:20.813Z,4.98
2023-02-26T13:37:53.565Z,4.95
2023-02-26T13:41:00.985Z,4.94
2023-02-26T13:43:55.923Z,4.93
2023-02-26T13:46:29.497Z,4.99
2023-02-26T13:49:23.616Z,5.02
2023-02-26T13:51:54.618Z,5.11
2023-02-26T13:54:22.026Z,5.10
2023-02-26T13:57:06.669Z,5.00
2023-02-26T13:59:57.202Z,4.91
2023-02-26T14:02:45.082Z,4.92
2023-02-26T14:05:31.767Z,4.91
2023-02-26T14:07:59.008Z,4.84
2023-02-26T14:10:33.067Z,4.77
2023-02-26T14:13:30.875Z,4.75
2023-02-26T14:16:10.929Z,4.76
2023-02-26T14:18:47.319Z,4.78
2023-02-26T14:21:27.172Z,4.73
2023-02-26T14:24:01.262Z,4.65
2023-02-26T14:26:35.980Z,4.60
2023-02-26T14:29:06.055Z,4.60
2023-02-26T14:32:06.681Z,4.61
2023-02-26T14:34:58.477Z,4.62
2023-02-26T14:37:28.786Z,4.59
2023-02-26T14:40:09.073Z,4.52
2023-02-26T14:42:46.018Z,4.48
2023-02-26T14:45:16.310Z,4.47
2023-02-26T14:47:45.955Z,4.41
2023-02-26T14:50:19.834Z,4.42
2023-02-26T14:53:24.124Z,4.37
2023-02-26T14:56:06.605Z,4.37
2023-02-26T14:59:09.832Z,4.35
2023-02-26T15:02:02.096Z,4.27
2023-02-26T15:05:04.680Z,4.24
2023-02-26T15:07:58.317Z,4.25
2023-02-26T15:10:33.961Z,4.21
2023-02-26T15:13:50.051Z,4.16
2023-02-26T15:16:35.894Z,4.09
2023-02-26T15:19:22.064Z,4.08
2023-02-26T15:22:27.675Z,4.08
2023-02-26T15:24:55.163Z,4.09
2023-02-26T15:27:22.598Z,4.08
2023-02-26T15:29:52.964Z,4.07
2023-02-26T15:32:31.455Z,4.04
2023-02-26T15:35:07.423Z,3.99
2023-02-26T15:37:35.545Z,3.93
2023-02-26T15:40:06.952Z,3.94
2023-02-26T15:42:40.200Z,3.93
2023-02-26T15:45:20.428Z,3.91
2023-02-26T15:47:55.427Z,3.87
2023-02-26T15:50:28.741Z,3.82
2023-02-26T15:53:00.335Z,3.84
2023-02-26T15:55:35.408Z,3.86
2023-02-26T15:58:06.217Z,3.88
2023-02-26T16:00:36.658Z,3.89
2023-02-26T16:03:04.954Z,3.87
2023-02-26T16:05:32.392Z,3.84
2023-02-26T16:07:59.921Z,3.79
2023-02-26T16:10:35.666Z,3.75
2023-02-26T16:13:03.784Z,3.70
2023-02-26T16:15:35.080Z,3.66
2023-02-26T16:18:06.710Z,3.61
2023-02-26T16:20:40.089Z,3.59
2023-02-26T16:23:13.405Z,3.58
2023-02-26T16:25:51.120Z,3.57
2023-02-26T16:28:24.372Z,3.58
2023-02-26T16:30:55.585Z,3.57
2023-02-26T16:33:25.703Z,3.54
2023-02-26T16:36:03.242Z,3.52
2023-02-26T16:38:46.062Z,3.49
2023-02-26T16:41:14.415Z,3.45
2023-02-26T16:43:44.656Z,3.44
2023-02-26T16:46:17.363Z,3.43
2023-02-26T16:48:54.149Z,3.41
2023-02-26T16:51:28.796Z,3.39
2023-02-26T16:54:00.296Z,3.36
2023-02-26T16:56:39.014Z,3.34
2023-02-26T16:59:14.858Z,3.33
2023-02-26T17:01:59.394Z,3.31
2023-02-26T17:04:30.072Z,3.31
2023-02-26T17:06:58.221Z,3.31
2023-02-26T17:09:37.919Z,3.30
2023-02-26T17:12:22.086Z,3.28
2023-02-26T17:14:56.716Z,3.28
2023-02-26T17:17:25.752Z,3.28
2023-02-26T17:19:53.625Z,3.30
2023-02-26T17:22:27.695Z,3.31
2023-02-26T17:24:55.426Z,3.31
2023-02-26T17:27:32.527Z,3.33
2023-02-26T17:30:02.738Z,3.35
2023-02-26T17:32:31.899Z,3.34
2023-02-26T17:34:59.735Z,3.35
2023-02-26T17:37:31.387Z,3.34
2023-02-26T17:39:59.853Z,3.32
2023-02-26T17:42:27.580Z,3.32
2023-02-26T17:44:56.734Z,3.32
2023-02-26T17:47:26.361Z,3.34
2023-02-26T17:49:54.146Z,3.34
2023-02-26T17:52:21.424Z,3.35
2023-02-26T17:54:48.791Z,3.34
2023-02-26T17:57:21.575Z,3.34
2023-02-26T17:59:50.347Z,3.35
2023-02-26T18:02:25.617Z,3.35
2023-02-26T18:04:54.335Z,3.33
2023-02-26T18:07:23.275Z,3.33
2023-02-26T18:09:51.726Z,3.32
2023-02-26T18:12:22.100Z,3.30
2023-02-26T18:14:49.982Z,3.26
2023-02-26T18:17:27.850Z,3.20
2023-02-26T18:19:55.228Z,3.15
2023-02-26T18:22:27.687Z,3.10
2023-02-26T18:24:55.445Z,3.06
2023-02-26T18:27:24.925Z,3.02
2023-02-26T18:29:53.414Z,2.97
2023-02-26T18:32:23.236Z,2.92
2023-02-26T18:34:51.990Z,2.89
2023-02-26T18:37:22.511Z,2.85
2023-02-26T18:39:51.940Z,2.81
2023-02-26T18:42:23.197Z,2.78
2023-02-26T18:44:51.367Z,2.76
2023-02-26T18:47:19.709Z,2.75
2023-02-26T18:49:51.621Z,2.71
2023-02-26T18:52:18.930Z,2.70
2023-02-26T18:54:46.174Z,2.66
2023-02-26T18:57:13.372Z,2.65
2023-02-26T18:59:41.252Z,2.62
2023-02-26T19:02:13.797Z,2.61
2023-02-26T19:04:41.964Z,2.56
2023-02-26T19:07:10.271Z,2.54
2023-02-26T19:09:37.580Z,2.51
2023-02-26T19:12:05.802Z,2.49
2023-02-26T19:14:35.697Z,2.47
2023-02-26T19:17:03.301Z,2.45
2023-02-26T19:19:31.063Z,2.43
2023-02-26T19:21:58.691Z,2.40
2023-02-26T19:24:25.920Z,2.41
2023-02-26T19:26:53.309Z,2.40
2023-02-26T19:29:20.601Z,2.38
2023-02-26T19:31:48.091Z,2.33
2023-02-26T19:34:15.638Z,2.32
2023-02-26T19:36:48.127Z,2.30
2023-02-26T19:39:18.460Z,2.27
2023-02-26T19:41:49.364Z,2.24
2023-02-26T19:44:17.552Z,2.23
2023-02-26T19:46:44.888Z,2.22
2023-02-26T19:49:12.677Z,2.20
2023-02-26T19:51:42.166Z,2.18
2023-02-26T19:54:09.737Z,2.14
2023-02-26T19:56:37.070Z,2.12
2023-02-26T19:59:04.343Z,2.09
2023-02-26T20:01:32.051Z,2.08
2023-02-26T20:04:00.937Z,2.06
2023-02-26T20:06:31.609Z,2.03
2023-02-26T20:08:58.857Z,2.01
2023-02-26T20:11:26.387Z,1.96
2023-02-26T20:13:53.803Z,1.92
2023-02-26T20:16:21.284Z,1.89
2023-02-26T20:18:51.754Z,1.87
2023-02-26T20:21:19.156Z,1.87
2023-02-26T20:23:46.368Z,1.84
2023-02-26T20:26:15.213Z,1.83
2023-02-26T20:28:43.149Z,1.79
2023-02-26T20:31:11.739Z,1.74
2023-02-26T20:33:39.849Z,1.72
2023-02-26T20:36:09.032Z,1.69
2023-02-26T20:38:37.051Z,1.67
2023-02-26T20:41:04.900Z,1.64
2023-02-26T20:43:33.509Z,1.62
2023-02-26T20:46:02.015Z,1.58
2023-02-26T20:48:29.267Z,1.53
2023-02-26T20:51:06.230Z,1.49
2023-02-26T20:53:34.435Z,1.44
2023-02-26T20:56:01.759Z,1.41
2023-02-26T20:58:29.219Z,1.34
2023-02-26T21:00:58.351Z,1.30
2023-02-26T21:03:26.558Z,1.27
2023-02-26T21:05:54.132Z,1.22
2023-02-26T21:08:22.102Z,1.17
2023-02-26T21:10:52.981Z,1.12
2023-02-26T21:13:20.911Z,1.08
2023-02-26T21:15:51.157Z,1.04
2023-02-26T21:18:18.535Z,1.01
2023-02-26T21:20:45.856Z,0.97
2023-02-26T21:23:13.424Z,0.95
2023-02-26T21:25:40.886Z,0.91
2023-02-26T21:28:08.175Z,0.90
2023-02-26T21:30:35.841Z,0.88
2023-02-26T21:33:03.547Z,0.84
2023-02-26T21:35:31.059Z,0.81
2023-02-26T21:37:58.412Z,0.77
2023-02-26T21:40:26.569Z,0.74
2023-02-26T21:42:53.782Z,0.73
2023-02-26T21:45:21.131Z,0.72
2023-02-26T21:47:48.341Z,0.70
2023-02-26T21:50:15.745Z,0.69
2023-02-26T21:52:43.006Z,0.66
2023-02-26T21:55:11.665Z,0.62
2023-02-26T21:57:39.427Z,0.58
2023-02-26T22:00:10.371Z,0.53
2023-02-26T22:02:42.091Z,0.48
2023-02-26T22:05:11.699Z,0.43
2023-02-26T22:07:42.015Z,0.36
2023-02-26T22:10:10.145Z,0.33
2023-02-26T22:12:37.848Z,0.30
2023-02-26T22:15:07.154Z,0.25
2023-02-26T22:17:36.834Z,0.23
2023-02-26T22:20:09.824Z,0.18
2023-02-26T22:22:38.181Z,0.14
2023-02-26T22:25:07.811Z,0.10
2023-02-26T22:27:35.371Z,0.06
2023-02-26T22:30:02.616Z,0.03
2023-02-26T22:32:29.985Z,-0.02
2023-02-26T22:34:57.686Z,-0.04
2023-02-26T22:37:25.024Z,-0.07
2023-02-26T22:39:52.386Z,-0.12
2023-02-26T22:42:19.734Z,-0.16
2023-02-26T22:44:47.304Z,-0.18
2023-02-26T22:47:14.737Z,-0.22
2023-02-26T22:49:41.979Z,-0.26
2023-02-26T22:52:10.632Z,-0.28
2023-02-26T22:54:39.037Z,-0.30
2023-02-26T22:57:07.710Z,-0.30
2023-02-26T22:59:35.259Z,-0.34
2023-02-26T23:02:02.676Z,-0.34
2023-02-26T23:04:30.350Z,-0.34
2023-02-26T23:06:57.840Z,-0.35
2023-02-26T23:09:25.256Z,-0.37
2023-02-26T23:11:52.610Z,-0.36
2023-02-26T23:14:20.325Z,-0.33
2023-02-26T23:16:47.558Z,-0.32
2023-02-26T23:19:14.829Z,-0.30
2023-02-26T23:21:42.074Z,-0.29
2023-02-26T23:24:09.607Z,-0.26
2023-02-26T23:26:37.859Z,-0.26
2023-02-26T23:29:06.539Z,-0.27
2023-02-26T23:31:34.515Z,-0.27
2023-02-26T23:34:03.091Z,-0.29
2023-02-26T23:36:30.817Z,-0.31
2023-02-26T23:38:58.173Z,-0.31
2023-02-26T23:41:26.111Z,-0.30
2023-02-26T23:43:53.528Z,-0.31
2023-02-26T23:46:20.784Z,-0.29
2023-02-26T23:48:48.000Z,-0.30
2023-02-26T23:51:15.510Z,-0.29
2023-02-26T23:53:42.747Z,-0.30
2023-02-26T23:56:09.959Z,-0.29
2023-02-26T23:58:37.335Z,-0.30
